sensor_id;sensor_type;location;lat;lon;timestamp;P1;durP1;ratioP1;P2;durP2;ratioP2
70132;SDS011;57495;49.922;7.966;2022-12-20T00:00:41;53.53;;;25.17;;
70132;SDS011;57495;49.922;7.966;2022-12-20T00:02:42;49.87;;;23.90;;
70132;SDS011;57495;49.922;7.966;2022-12-20T00:04:44;58.38;;;24.60;;
70132;SDS011;57495;49.922;7.966;2022-12-20T00:06:45;47.50;;;23.88;;
70132;SDS011;57495;49.922;7.966;2022-12-20T00:08:51;50.22;;;24.40;;
70132;SDS011;57495;49.922;7.966;2022-12-20T00:10:54;50.33;;;24.83;;
70132;SDS011;57495;49.922;7.966;2022-12-20T00:12:55;48.27;;;24.53;;
70132;SDS011;57495;49.922;7.966;2022-12-20T00:14:58;52.45;;;24.63;;
70132;SDS011;57495;49.922;7.966;2022-12-20T00:16:59;49.28;;;24.30;;
70132;SDS011;57495;49.922;7.966;2022-12-20T00:19:02;51.10;;;24.60;;
70132;SDS011;57495;49.922;7.966;2022-12-20T00:21:05;52.92;;;24.25;;
70132;SDS011;57495;49.922;7.966;2022-12-20T00:23:09;51.63;;;22.83;;
70132;SDS011;57495;49.922;7.966;2022-12-20T00:25:10;51.95;;;24.63;;
70132;SDS011;57495;49.922;7.966;2022-12-20T00:27:11;50.28;;;24.98;;
70132;SDS011;57495;49.922;7.966;2022-12-20T00:29:13;50.70;;;24.33;;
70132;SDS011;57495;49.922;7.966;2022-12-20T00:31:17;52.85;;;23.33;;
70132;SDS011;57495;49.922;7.966;2022-12-20T00:33:20;50.93;;;23.67;;
70132;SDS011;57495;49.922;7.966;2022-12-20T00:35:21;47.78;;;23.20;;
70132;SDS011;57495;49.922;7.966;2022-12-20T00:37:23;47.75;;;23.60;;
70132;SDS011;57495;49.922;7.966;2022-12-20T00:39:24;50.38;;;23.85;;
70132;SDS011;57495;49.922;7.966;2022-12-20T00:41:27;54.30;;;23.60;;
70132;SDS011;57495;49.922;7.966;2022-12-20T00:43:30;48.63;;;22.90;;
70132;SDS011;57495;49.922;7.966;2022-12-20T00:45:33;45.20;;;23.20;;
70132;SDS011;57495;49.922;7.966;2022-12-20T00:47:36;48.05;;;23.55;;
70132;SDS011;57495;49.922;7.966;2022-12-20T00:49:37;49.10;;;22.02;;
70132;SDS011;57495;49.922;7.966;2022-12-20T00:51:39;49.78;;;23.00;;
70132;SDS011;57495;49.922;7.966;2022-12-20T00:53:40;48.03;;;22.97;;
70132;SDS011;57495;49.922;7.966;2022-12-20T00:55:42;49.28;;;22.95;;
70132;SDS011;57495;49.922;7.966;2022-12-20T00:57:44;47.97;;;23.10;;
70132;SDS011;57495;49.922;7.966;2022-12-20T00:59:46;52.90;;;24.00;;
70132;SDS011;57495;49.922;7.966;2022-12-20T01:01:47;46.08;;;23.23;;
70132;SDS011;57495;49.922;7.966;2022-12-20T01:03:51;45.73;;;22.63;;
70132;SDS011;57495;49.922;7.966;2022-12-20T01:05:55;48.28;;;22.17;;
70132;SDS011;57495;49.922;7.966;2022-12-20T01:07:59;49.20;;;23.90;;
70132;SDS011;57495;49.922;7.966;2022-12-20T01:10:01;45.63;;;23.75;;
70132;SDS011;57495;49.922;7.966;2022-12-20T01:12:02;52.17;;;23.90;;
70132;SDS011;57495;49.922;7.966;2022-12-20T01:14:05;44.20;;;23.00;;
70132;SDS011;57495;49.922;7.966;2022-12-20T01:16:09;45.47;;;22.52;;
70132;SDS011;57495;49.922;7.966;2022-12-20T01:18:12;50.30;;;23.02;;
70132;SDS011;57495;49.922;7.966;2022-12-20T01:20:15;46.08;;;22.75;;
70132;SDS011;57495;49.922;7.966;2022-12-20T01:22:16;48.72;;;24.17;;
70132;SDS011;57495;49.922;7.966;2022-12-20T01:24:19;50.63;;;24.10;;
70132;SDS011;57495;49.922;7.966;2022-12-20T01:26:21;51.00;;;25.20;;
70132;SDS011;57495;49.922;7.966;2022-12-20T01:28:24;51.55;;;25.75;;
70132;SDS011;57495;49.922;7.966;2022-12-20T01:30:26;48.92;;;23.50;;
70132;SDS011;57495;49.922;7.966;2022-12-20T01:32:28;52.83;;;25.27;;
70132;SDS011;57495;49.922;7.966;2022-12-20T01:34:29;51.80;;;24.80;;
70132;SDS011;57495;49.922;7.966;2022-12-20T01:36:35;53.00;;;24.75;;
70132;SDS011;57495;49.922;7.966;2022-12-20T01:38:37;56.25;;;26.70;;
70132;SDS011;57495;49.922;7.966;2022-12-20T01:40:39;60.70;;;27.70;;
70132;SDS011;57495;49.922;7.966;2022-12-20T01:42:43;52.85;;;25.75;;
70132;SDS011;57495;49.922;7.966;2022-12-20T01:44:50;57.30;;;26.03;;
70132;SDS011;57495;49.922;7.966;2022-12-20T01:46:54;54.90;;;25.05;;
70132;SDS011;57495;49.922;7.966;2022-12-20T01:48:57;52.90;;;25.85;;
70132;SDS011;57495;49.922;7.966;2022-12-20T01:51:03;55.88;;;24.77;;
70132;SDS011;57495;49.922;7.966;2022-12-20T01:53:06;47.78;;;24.27;;
70132;SDS011;57495;49.922;7.966;2022-12-20T01:55:09;51.00;;;23.93;;
70132;SDS011;57495;49.922;7.966;2022-12-20T01:57:15;53.95;;;26.60;;
70132;SDS011;57495;49.922;7.966;2022-12-20T01:59:24;52.65;;;25.23;;
70132;SDS011;57495;49.922;7.966;2022-12-20T02:01:27;49.33;;;24.65;;
70132;SDS011;57495;49.922;7.966;2022-12-20T02:03:29;52.63;;;25.75;;
70132;SDS011;57495;49.922;7.966;2022-12-20T02:05:33;52.00;;;26.13;;
70132;SDS011;57495;49.922;7.966;2022-12-20T02:07:36;54.30;;;24.58;;
70132;SDS011;57495;49.922;7.966;2022-12-20T02:09:42;52.83;;;25.83;;
70132;SDS011;57495;49.922;7.966;2022-12-20T02:11:47;51.72;;;25.42;;
70132;SDS011;57495;49.922;7.966;2022-12-20T02:13:59;53.35;;;25.98;;
70132;SDS011;57495;49.922;7.966;2022-12-20T02:16:09;53.47;;;24.97;;
70132;SDS011;57495;49.922;7.966;2022-12-20T02:18:19;57.03;;;26.23;;
70132;SDS011;57495;49.922;7.966;2022-12-20T02:23:08;50.15;;;24.40;;
70132;SDS011;57495;49.922;7.966;2022-12-20T02:25:33;52.10;;;24.85;;
70132;SDS011;57495;49.922;7.966;2022-12-20T02:27:48;43.43;;;24.03;;
70132;SDS011;57495;49.922;7.966;2022-12-20T02:30:08;53.60;;;25.80;;
70132;SDS011;57495;49.922;7.966;2022-12-20T02:32:12;51.80;;;25.23;;
70132;SDS011;57495;49.922;7.966;2022-12-20T02:34:20;49.10;;;24.05;;
70132;SDS011;57495;49.922;7.966;2022-12-20T02:36:24;54.22;;;26.27;;
70132;SDS011;57495;49.922;7.966;2022-12-20T02:38:27;51.43;;;24.80;;
70132;SDS011;57495;49.922;7.966;2022-12-20T02:40:31;51.95;;;25.58;;
70132;SDS011;57495;49.922;7.966;2022-12-20T02:42:35;49.67;;;23.33;;
70132;SDS011;57495;49.922;7.966;2022-12-20T02:44:38;52.10;;;24.13;;
70132;SDS011;57495;49.922;7.966;2022-12-20T02:47:03;46.40;;;23.05;;
70132;SDS011;57495;49.922;7.966;2022-12-20T02:49:11;49.40;;;23.27;;
70132;SDS011;57495;49.922;7.966;2022-12-20T02:51:16;51.63;;;24.25;;
70132;SDS011;57495;49.922;7.966;2022-12-20T02:53:20;47.53;;;24.02;;
70132;SDS011;57495;49.922;7.966;2022-12-20T02:55:24;50.17;;;24.38;;
70132;SDS011;57495;49.922;7.966;2022-12-20T02:57:37;51.67;;;25.45;;
70132;SDS011;57495;49.922;7.966;2022-12-20T02:59:44;53.20;;;23.63;;
70132;SDS011;57495;49.922;7.966;2022-12-20T03:01:51;53.53;;;25.05;;
70132;SDS011;57495;49.922;7.966;2022-12-20T03:03:55;47.88;;;24.10;;
70132;SDS011;57495;49.922;7.966;2022-12-20T03:05:58;49.70;;;23.88;;
70132;SDS011;57495;49.922;7.966;2022-12-20T03:07:59;50.03;;;24.05;;
70132;SDS011;57495;49.922;7.966;2022-12-20T03:10:01;47.70;;;22.87;;
70132;SDS011;57495;49.922;7.966;2022-12-20T03:12:04;46.78;;;23.08;;
70132;SDS011;57495;49.922;7.966;2022-12-20T03:14:06;47.78;;;24.00;;
70132;SDS011;57495;49.922;7.966;2022-12-20T03:16:08;46.50;;;22.67;;
70132;SDS011;57495;49.922;7.966;2022-12-20T03:18:10;50.00;;;24.17;;
70132;SDS011;57495;49.922;7.966;2022-12-20T03:20:13;44.50;;;22.60;;
70132;SDS011;57495;49.922;7.966;2022-12-20T03:22:15;45.35;;;22.85;;
70132;SDS011;57495;49.922;7.966;2022-12-20T03:24:16;49.83;;;25.05;;
70132;SDS011;57495;49.922;7.966;2022-12-20T03:26:18;46.20;;;22.42;;
70132;SDS011;57495;49.922;7.966;2022-12-20T03:28:19;46.97;;;22.55;;
70132;SDS011;57495;49.922;7.966;2022-12-20T03:30:21;46.90;;;23.30;;
70132;SDS011;57495;49.922;7.966;2022-12-20T03:32:22;44.97;;;21.45;;
70132;SDS011;57495;49.922;7.966;2022-12-20T03:34:24;41.53;;;21.70;;
70132;SDS011;57495;49.922;7.966;2022-12-20T03:36:27;47.13;;;22.42;;
70132;SDS011;57495;49.922;7.966;2022-12-20T03:38:29;53.75;;;25.25;;
70132;SDS011;57495;49.922;7.966;2022-12-20T03:40:30;51.40;;;23.87;;
70132;SDS011;57495;49.922;7.966;2022-12-20T03:42:31;51.80;;;24.75;;
70132;SDS011;57495;49.922;7.966;2022-12-20T03:44:33;51.20;;;25.20;;
70132;SDS011;57495;49.922;7.966;2022-12-20T03:46:35;51.85;;;24.77;;
70132;SDS011;57495;49.922;7.966;2022-12-20T03:48:36;59.00;;;25.50;;
70132;SDS011;57495;49.922;7.966;2022-12-20T03:50:38;55.73;;;26.00;;
70132;SDS011;57495;49.922;7.966;2022-12-20T03:52:41;52.58;;;25.83;;
70132;SDS011;57495;49.922;7.966;2022-12-20T03:54:42;54.42;;;27.23;;
70132;SDS011;57495;49.922;7.966;2022-12-20T03:56:44;53.00;;;24.85;;
70132;SDS011;57495;49.922;7.966;2022-12-20T03:58:45;52.78;;;24.23;;
70132;SDS011;57495;49.922;7.966;2022-12-20T04:00:48;49.50;;;24.50;;
70132;SDS011;57495;49.922;7.966;2022-12-20T04:02:50;50.33;;;23.70;;
70132;SDS011;57495;49.922;7.966;2022-12-20T04:04:51;54.35;;;25.55;;
70132;SDS011;57495;49.922;7.966;2022-12-20T04:06:53;56.83;;;25.15;;
70132;SDS011;57495;49.922;7.966;2022-12-20T04:08:55;50.38;;;24.75;;
70132;SDS011;57495;49.922;7.966;2022-12-20T04:10:57;51.77;;;23.53;;
70132;SDS011;57495;49.922;7.966;2022-12-20T04:13:17;51.72;;;23.13;;
70132;SDS011;57495;49.922;7.966;2022-12-20T04:15:18;48.30;;;25.20;;
70132;SDS011;57495;49.922;7.966;2022-12-20T04:17:19;48.67;;;23.15;;
70132;SDS011;57495;49.922;7.966;2022-12-20T04:19:21;49.33;;;23.23;;
70132;SDS011;57495;49.922;7.966;2022-12-20T04:21:24;51.40;;;24.07;;
70132;SDS011;57495;49.922;7.966;2022-12-20T04:23:27;50.55;;;24.23;;
70132;SDS011;57495;49.922;7.966;2022-12-20T04:25:30;48.78;;;24.58;;
70132;SDS011;57495;49.922;7.966;2022-12-20T04:27:31;51.33;;;23.75;;
70132;SDS011;57495;49.922;7.966;2022-12-20T04:29:33;47.58;;;23.67;;
70132;SDS011;57495;49.922;7.966;2022-12-20T04:31:34;49.27;;;21.93;;
70132;SDS011;57495;49.922;7.966;2022-12-20T04:33:36;45.38;;;23.25;;
70132;SDS011;57495;49.922;7.966;2022-12-20T04:35:38;48.30;;;24.50;;
70132;SDS011;57495;49.922;7.966;2022-12-20T04:37:39;55.22;;;24.33;;
70132;SDS011;57495;49.922;7.966;2022-12-20T04:39:41;49.58;;;23.77;;
70132;SDS011;57495;49.922;7.966;2022-12-20T04:41:44;52.73;;;24.13;;
70132;SDS011;57495;49.922;7.966;2022-12-20T04:43:47;53.83;;;24.77;;
70132;SDS011;57495;49.922;7.966;2022-12-20T04:45:52;49.22;;;24.83;;
70132;SDS011;57495;49.922;7.966;2022-12-20T04:47:56;50.42;;;24.92;;
70132;SDS011;57495;49.922;7.966;2022-12-20T04:49:57;49.70;;;24.60;;
70132;SDS011;57495;49.922;7.966;2022-12-20T04:51:59;50.23;;;24.37;;
70132;SDS011;57495;49.922;7.966;2022-12-20T04:54:22;48.95;;;23.75;;
70132;SDS011;57495;49.922;7.966;2022-12-20T04:56:26;52.13;;;24.75;;
70132;SDS011;57495;49.922;7.966;2022-12-20T04:58:30;58.05;;;25.33;;
70132;SDS011;57495;49.922;7.966;2022-12-20T05:00:32;49.15;;;25.45;;
70132;SDS011;57495;49.922;7.966;2022-12-20T05:02:34;52.67;;;24.63;;
70132;SDS011;57495;49.922;7.966;2022-12-20T05:04:36;50.70;;;24.08;;
70132;SDS011;57495;49.922;7.966;2022-12-20T05:06:37;49.70;;;25.52;;
70132;SDS011;57495;49.922;7.966;2022-12-20T05:08:40;50.30;;;24.30;;
70132;SDS011;57495;49.922;7.966;2022-12-20T05:10:42;50.38;;;24.13;;
70132;SDS011;57495;49.922;7.966;2022-12-20T05:12:44;45.80;;;23.87;;
70132;SDS011;57495;49.922;7.966;2022-12-20T05:14:47;50.15;;;24.02;;
70132;SDS011;57495;49.922;7.966;2022-12-20T05:16:48;47.60;;;23.63;;
70132;SDS011;57495;49.922;7.966;2022-12-20T05:18:50;51.05;;;23.80;;
70132;SDS011;57495;49.922;7.966;2022-12-20T05:20:53;48.30;;;24.30;;
70132;SDS011;57495;49.922;7.966;2022-12-20T05:23:09;49.20;;;23.00;;
70132;SDS011;57495;49.922;7.966;2022-12-20T05:25:29;52.58;;;22.63;;
70132;SDS011;57495;49.922;7.966;2022-12-20T05:27:48;50.90;;;23.77;;
70132;SDS011;57495;49.922;7.966;2022-12-20T05:29:51;47.58;;;23.38;;
70132;SDS011;57495;49.922;7.966;2022-12-20T05:31:52;44.95;;;21.15;;
70132;SDS011;57495;49.922;7.966;2022-12-20T05:33:54;46.63;;;23.10;;
70132;SDS011;57495;49.922;7.966;2022-12-20T05:35:55;47.92;;;24.17;;
70132;SDS011;57495;49.922;7.966;2022-12-20T05:37:57;53.20;;;25.52;;
70132;SDS011;57495;49.922;7.966;2022-12-20T05:39:59;52.63;;;25.55;;
70132;SDS011;57495;49.922;7.966;2022-12-20T05:42:00;48.72;;;24.10;;
70132;SDS011;57495;49.922;7.966;2022-12-20T05:44:02;47.33;;;22.70;;
70132;SDS011;57495;49.922;7.966;2022-12-20T05:46:05;48.72;;;24.92;;
70132;SDS011;57495;49.922;7.966;2022-12-20T05:48:07;49.72;;;23.83;;
70132;SDS011;57495;49.922;7.966;2022-12-20T05:50:09;46.80;;;24.02;;
70132;SDS011;57495;49.922;7.966;2022-12-20T05:52:11;47.92;;;23.95;;
70132;SDS011;57495;49.922;7.966;2022-12-20T05:54:12;45.20;;;23.53;;
70132;SDS011;57495;49.922;7.966;2022-12-20T05:56:14;49.17;;;24.25;;
70132;SDS011;57495;49.922;7.966;2022-12-20T05:58:15;49.17;;;24.90;;
70132;SDS011;57495;49.922;7.966;2022-12-20T06:00:17;47.17;;;23.33;;
70132;SDS011;57495;49.922;7.966;2022-12-20T06:02:20;48.03;;;24.13;;
70132;SDS011;57495;49.922;7.966;2022-12-20T06:04:22;51.83;;;23.93;;
70132;SDS011;57495;49.922;7.966;2022-12-20T06:06:23;48.78;;;24.48;;
70132;SDS011;57495;49.922;7.966;2022-12-20T06:08:25;48.38;;;23.98;;
70132;SDS011;57495;49.922;7.966;2022-12-20T06:10:26;49.47;;;22.95;;
70132;SDS011;57495;49.922;7.966;2022-12-20T06:12:28;49.05;;;24.48;;
70132;SDS011;57495;49.922;7.966;2022-12-20T06:14:29;49.00;;;23.53;;
70132;SDS011;57495;49.922;7.966;2022-12-20T06:16:31;46.95;;;23.30;;
70132;SDS011;57495;49.922;7.966;2022-12-20T06:18:34;50.05;;;25.70;;
70132;SDS011;57495;49.922;7.966;2022-12-20T06:20:35;50.40;;;23.38;;
70132;SDS011;57495;49.922;7.966;2022-12-20T06:22:37;51.78;;;25.48;;
70132;SDS011;57495;49.922;7.966;2022-12-20T06:24:39;53.03;;;25.30;;
70132;SDS011;57495;49.922;7.966;2022-12-20T06:26:41;48.65;;;25.30;;
70132;SDS011;57495;49.922;7.966;2022-12-20T06:28:42;57.95;;;28.90;;
70132;SDS011;57495;49.922;7.966;2022-12-20T06:30:49;51.40;;;26.63;;
70132;SDS011;57495;49.922;7.966;2022-12-20T06:32:52;56.28;;;27.90;;
70132;SDS011;57495;49.922;7.966;2022-12-20T06:34:55;51.63;;;26.53;;
70132;SDS011;57495;49.922;7.966;2022-12-20T06:36:56;57.78;;;27.77;;
70132;SDS011;57495;49.922;7.966;2022-12-20T06:38:58;51.95;;;27.02;;
70132;SDS011;57495;49.922;7.966;2022-12-20T06:41:00;56.00;;;29.15;;
70132;SDS011;57495;49.922;7.966;2022-12-20T06:43:01;54.85;;;26.98;;
70132;SDS011;57495;49.922;7.966;2022-12-20T06:45:03;49.10;;;24.57;;
70132;SDS011;57495;49.922;7.966;2022-12-20T06:47:05;55.55;;;27.70;;
70132;SDS011;57495;49.922;7.966;2022-12-20T06:49:06;55.85;;;28.77;;
70132;SDS011;57495;49.922;7.966;2022-12-20T06:51:09;55.80;;;27.33;;
70132;SDS011;57495;49.922;7.966;2022-12-20T06:53:11;50.53;;;27.23;;
70132;SDS011;57495;49.922;7.966;2022-12-20T06:55:12;53.80;;;26.43;;
70132;SDS011;57495;49.922;7.966;2022-12-20T06:57:14;54.38;;;26.52;;
70132;SDS011;57495;49.922;7.966;2022-12-20T06:59:16;49.03;;;25.75;;
70132;SDS011;57495;49.922;7.966;2022-12-20T07:01:17;51.05;;;26.02;;
70132;SDS011;57495;49.922;7.966;2022-12-20T07:03:19;51.88;;;26.30;;
70132;SDS011;57495;49.922;7.966;2022-12-20T07:05:21;54.87;;;26.87;;
70132;SDS011;57495;49.922;7.966;2022-12-20T07:07:23;51.97;;;25.92;;
70132;SDS011;57495;49.922;7.966;2022-12-20T07:09:25;53.67;;;25.83;;
70132;SDS011;57495;49.922;7.966;2022-12-20T07:11:27;53.75;;;27.55;;
70132;SDS011;57495;49.922;7.966;2022-12-20T07:13:28;56.00;;;27.33;;
70132;SDS011;57495;49.922;7.966;2022-12-20T07:15:30;59.10;;;28.60;;
70132;SDS011;57495;49.922;7.966;2022-12-20T07:17:31;56.72;;;29.23;;
70132;SDS011;57495;49.922;7.966;2022-12-20T07:19:33;55.63;;;28.25;;
70132;SDS011;57495;49.922;7.966;2022-12-20T07:21:35;58.08;;;29.63;;
70132;SDS011;57495;49.922;7.966;2022-12-20T07:23:38;53.85;;;28.17;;
70132;SDS011;57495;49.922;7.966;2022-12-20T07:25:39;55.70;;;27.83;;
70132;SDS011;57495;49.922;7.966;2022-12-20T07:27:41;53.33;;;27.13;;
70132;SDS011;57495;49.922;7.966;2022-12-20T07:29:43;49.63;;;27.25;;
70132;SDS011;57495;49.922;7.966;2022-12-20T07:31:44;48.30;;;24.63;;
70132;SDS011;57495;49.922;7.966;2022-12-20T07:33:46;52.00;;;25.08;;
70132;SDS011;57495;49.922;7.966;2022-12-20T07:35:47;48.83;;;24.63;;
70132;SDS011;57495;49.922;7.966;2022-12-20T07:37:49;47.90;;;24.48;;
70132;SDS011;57495;49.922;7.966;2022-12-20T07:39:52;51.25;;;25.95;;
70132;SDS011;57495;49.922;7.966;2022-12-20T07:41:53;48.08;;;23.98;;
70132;SDS011;57495;49.922;7.966;2022-12-20T07:43:55;46.50;;;23.88;;
70132;SDS011;57495;49.922;7.966;2022-12-20T07:45:58;48.83;;;26.07;;
70132;SDS011;57495;49.922;7.966;2022-12-20T07:48:00;52.05;;;26.05;;
70132;SDS011;57495;49.922;7.966;2022-12-20T07:50:01;50.80;;;26.92;;
70132;SDS011;57495;49.922;7.966;2022-12-20T07:52:03;73.63;;;28.92;;
70132;SDS011;57495;49.922;7.966;2022-12-20T07:54:09;72.03;;;30.70;;
70132;SDS011;57495;49.922;7.966;2022-12-20T07:56:15;66.53;;;31.00;;
70132;SDS011;57495;49.922;7.966;2022-12-20T07:58:20;68.05;;;33.65;;
70132;SDS011;57495;49.922;7.966;2022-12-20T08:00:22;51.80;;;26.38;;
70132;SDS011;57495;49.922;7.966;2022-12-20T08:02:25;51.28;;;26.33;;
70132;SDS011;57495;49.922;7.966;2022-12-20T08:04:32;78.30;;;40.40;;
70132;SDS011;57495;49.922;7.966;2022-12-20T08:06:34;52.03;;;27.37;;
70132;SDS011;57495;49.922;7.966;2022-12-20T08:08:39;52.97;;;25.98;;
70132;SDS011;57495;49.922;7.966;2022-12-20T08:10:44;47.53;;;25.00;;
70132;SDS011;57495;49.922;7.966;2022-12-20T08:12:48;49.05;;;24.52;;
70132;SDS011;57495;49.922;7.966;2022-12-20T08:14:50;58.50;;;26.52;;
70132;SDS011;57495;49.922;7.966;2022-12-20T08:16:55;64.23;;;28.87;;
70132;SDS011;57495;49.922;7.966;2022-12-20T08:18:58;55.20;;;27.00;;
70132;SDS011;57495;49.922;7.966;2022-12-20T08:20:59;45.47;;;25.60;;
70132;SDS011;57495;49.922;7.966;2022-12-20T08:23:01;49.72;;;25.10;;
70132;SDS011;57495;49.922;7.966;2022-12-20T08:25:04;51.58;;;25.60;;
70132;SDS011;57495;49.922;7.966;2022-12-20T08:27:06;54.90;;;28.13;;
70132;SDS011;57495;49.922;7.966;2022-12-20T08:29:09;54.75;;;28.33;;
70132;SDS011;57495;49.922;7.966;2022-12-20T08:31:11;59.75;;;30.88;;
70132;SDS011;57495;49.922;7.966;2022-12-20T08:33:13;57.17;;;28.30;;
70132;SDS011;57495;49.922;7.966;2022-12-20T08:35:15;56.95;;;28.88;;
70132;SDS011;57495;49.922;7.966;2022-12-20T08:37:16;52.57;;;28.77;;
70132;SDS011;57495;49.922;7.966;2022-12-20T08:39:18;63.58;;;28.10;;
70132;SDS011;57495;49.922;7.966;2022-12-20T08:41:20;58.38;;;29.45;;
70132;SDS011;57495;49.922;7.966;2022-12-20T08:43:21;59.03;;;28.20;;
70132;SDS011;57495;49.922;7.966;2022-12-20T08:45:25;54.42;;;27.45;;
70132;SDS011;57495;49.922;7.966;2022-12-20T08:47:27;54.43;;;28.17;;
70132;SDS011;57495;49.922;7.966;2022-12-20T08:49:29;61.05;;;33.38;;
70132;SDS011;57495;49.922;7.966;2022-12-20T08:51:31;67.20;;;33.05;;
70132;SDS011;57495;49.922;7.966;2022-12-20T08:53:33;57.15;;;30.30;;
70132;SDS011;57495;49.922;7.966;2022-12-20T08:55:35;58.75;;;30.00;;
70132;SDS011;57495;49.922;7.966;2022-12-20T08:57:37;54.50;;;29.17;;
70132;SDS011;57495;49.922;7.966;2022-12-20T08:59:39;55.65;;;28.58;;
70132;SDS011;57495;49.922;7.966;2022-12-20T09:01:42;55.70;;;28.10;;
70132;SDS011;57495;49.922;7.966;2022-12-20T09:03:44;56.78;;;29.50;;
70132;SDS011;57495;49.922;7.966;2022-12-20T09:05:46;60.13;;;30.00;;
70132;SDS011;57495;49.922;7.966;2022-12-20T09:07:47;51.43;;;27.47;;
70132;SDS011;57495;49.922;7.966;2022-12-20T09:09:49;56.28;;;28.08;;
70132;SDS011;57495;49.922;7.966;2022-12-20T09:11:50;56.13;;;28.60;;
70132;SDS011;57495;49.922;7.966;2022-12-20T09:13:53;53.42;;;28.00;;
70132;SDS011;57495;49.922;7.966;2022-12-20T09:15:55;58.30;;;29.25;;
70132;SDS011;57495;49.922;7.966;2022-12-20T09:18:02;49.70;;;27.47;;
70132;SDS011;57495;49.922;7.966;2022-12-20T09:20:05;56.20;;;28.45;;
70132;SDS011;57495;49.922;7.966;2022-12-20T09:22:07;54.70;;;29.00;;
70132;SDS011;57495;49.922;7.966;2022-12-20T09:24:08;60.67;;;28.80;;
70132;SDS011;57495;49.922;7.966;2022-12-20T09:26:11;59.30;;;29.73;;
70132;SDS011;57495;49.922;7.966;2022-12-20T09:28:15;48.87;;;26.77;;
70132;SDS011;57495;49.922;7.966;2022-12-20T09:30:16;57.35;;;28.55;;
70132;SDS011;57495;49.922;7.966;2022-12-20T09:32:18;54.30;;;30.02;;
70132;SDS011;57495;49.922;7.966;2022-12-20T09:34:21;58.08;;;29.77;;
70132;SDS011;57495;49.922;7.966;2022-12-20T09:36:23;54.50;;;29.40;;
70132;SDS011;57495;49.922;7.966;2022-12-20T09:38:26;48.53;;;28.60;;
70132;SDS011;57495;49.922;7.966;2022-12-20T09:40:29;68.40;;;36.17;;
70132;SDS011;57495;49.922;7.966;2022-12-20T09:42:32;68.53;;;37.17;;
70132;SDS011;57495;49.922;7.966;2022-12-20T09:44:34;65.07;;;34.88;;
70132;SDS011;57495;49.922;7.966;2022-12-20T09:46:40;61.75;;;32.88;;
70132;SDS011;57495;49.922;7.966;2022-12-20T09:48:42;63.67;;;30.20;;
70132;SDS011;57495;49.922;7.966;2022-12-20T09:50:48;58.42;;;29.40;;
70132;SDS011;57495;49.922;7.966;2022-12-20T09:53:02;55.78;;;27.58;;
70132;SDS011;57495;49.922;7.966;2022-12-20T09:55:17;50.28;;;26.70;;
70132;SDS011;57495;49.922;7.966;2022-12-20T09:57:28;53.78;;;26.35;;
70132;SDS011;57495;49.922;7.966;2022-12-20T09:59:40;49.10;;;24.97;;
70132;SDS011;57495;49.922;7.966;2022-12-20T10:01:44;55.00;;;26.70;;
70132;SDS011;57495;49.922;7.966;2022-12-20T10:03:47;49.40;;;26.67;;
70132;SDS011;57495;49.922;7.966;2022-12-20T10:05:51;44.60;;;24.70;;
70132;SDS011;57495;49.922;7.966;2022-12-20T10:07:54;52.08;;;26.52;;
70132;SDS011;57495;49.922;7.966;2022-12-20T10:10:13;47.77;;;24.27;;
70132;SDS011;57495;49.922;7.966;2022-12-20T10:12:24;49.22;;;26.75;;
70132;SDS011;57495;49.922;7.966;2022-12-20T10:14:38;54.83;;;26.48;;
70132;SDS011;57495;49.922;7.966;2022-12-20T10:16:55;53.15;;;26.65;;
70132;SDS011;57495;49.922;7.966;2022-12-20T10:19:05;58.78;;;27.15;;
70132;SDS011;57495;49.922;7.966;2022-12-20T10:21:18;56.23;;;27.57;;
70132;SDS011;57495;49.922;7.966;2022-12-20T10:23:27;55.88;;;28.05;;
70132;SDS011;57495;49.922;7.966;2022-12-20T10:25:33;53.95;;;28.50;;
70132;SDS011;57495;49.922;7.966;2022-12-20T10:27:37;55.28;;;29.23;;
70132;SDS011;57495;49.922;7.966;2022-12-20T10:29:41;55.00;;;28.88;;
70132;SDS011;57495;49.922;7.966;2022-12-20T10:31:43;55.13;;;27.03;;
70132;SDS011;57495;49.922;7.966;2022-12-20T10:33:45;55.65;;;28.52;;
70132;SDS011;57495;49.922;7.966;2022-12-20T10:35:47;51.83;;;26.10;;
70132;SDS011;57495;49.922;7.966;2022-12-20T10:37:58;49.05;;;25.30;;
70132;SDS011;57495;49.922;7.966;2022-12-20T10:40:01;50.67;;;25.92;;
70132;SDS011;57495;49.922;7.966;2022-12-20T10:42:09;51.77;;;24.97;;
70132;SDS011;57495;49.922;7.966;2022-12-20T10:44:25;50.88;;;25.35;;
70132;SDS011;57495;49.922;7.966;2022-12-20T10:46:34;51.10;;;25.90;;
70132;SDS011;57495;49.922;7.966;2022-12-20T10:48:39;51.22;;;24.38;;
70132;SDS011;57495;49.922;7.966;2022-12-20T10:50:42;50.22;;;24.92;;
70132;SDS011;57495;49.922;7.966;2022-12-20T10:53:05;51.17;;;24.87;;
70132;SDS011;57495;49.922;7.966;2022-12-20T10:55:32;47.08;;;24.75;;
70132;SDS011;57495;49.922;7.966;2022-12-20T10:57:36;49.55;;;25.70;;
70132;SDS011;57495;49.922;7.966;2022-12-20T10:59:42;51.05;;;26.20;;
70132;SDS011;57495;49.922;7.966;2022-12-20T11:01:46;53.90;;;26.55;;
70132;SDS011;57495;49.922;7.966;2022-12-20T11:03:53;50.50;;;24.93;;
70132;SDS011;57495;49.922;7.966;2022-12-20T11:05:57;50.30;;;26.50;;
70132;SDS011;57495;49.922;7.966;2022-12-20T11:08:06;52.53;;;25.95;;
70132;SDS011;57495;49.922;7.966;2022-12-20T11:10:16;49.22;;;25.73;;
70132;SDS011;57495;49.922;7.966;2022-12-20T11:12:19;55.50;;;27.75;;
70132;SDS011;57495;49.922;7.966;2022-12-20T11:14:21;50.87;;;27.13;;
70132;SDS011;57495;49.922;7.966;2022-12-20T11:16:23;48.90;;;25.23;;
70132;SDS011;57495;49.922;7.966;2022-12-20T11:18:32;52.33;;;28.10;;
70132;SDS011;57495;49.922;7.966;2022-12-20T11:20:41;49.58;;;25.58;;
70132;SDS011;57495;49.922;7.966;2022-12-20T11:22:47;78.85;;;44.15;;
70132;SDS011;57495;49.922;7.966;2022-12-20T11:25:00;300.90;;;171.93;;
70132;SDS011;57495;49.922;7.966;2022-12-20T11:27:19;264.88;;;152.32;;
70132;SDS011;57495;49.922;7.966;2022-12-20T11:29:31;90.95;;;47.45;;
70132;SDS011;57495;49.922;7.966;2022-12-20T11:31:48;54.10;;;28.50;;
70132;SDS011;57495;49.922;7.966;2022-12-20T11:34:02;49.70;;;26.15;;
70132;SDS011;57495;49.922;7.966;2022-12-20T11:36:15;53.87;;;27.27;;
70132;SDS011;57495;49.922;7.966;2022-12-20T11:38:36;59.10;;;30.83;;
70132;SDS011;57495;49.922;7.966;2022-12-20T11:40:45;73.55;;;38.45;;
70132;SDS011;57495;49.922;7.966;2022-12-20T11:42:54;59.17;;;30.00;;
70132;SDS011;57495;49.922;7.966;2022-12-20T11:45:12;57.05;;;28.98;;
70132;SDS011;57495;49.922;7.966;2022-12-20T11:47:26;57.50;;;28.93;;
70132;SDS011;57495;49.922;7.966;2022-12-20T11:49:48;52.33;;;27.83;;
70132;SDS011;57495;49.922;7.966;2022-12-20T11:52:03;57.33;;;30.00;;
70132;SDS011;57495;49.922;7.966;2022-12-20T11:54:11;54.65;;;28.60;;
70132;SDS011;57495;49.922;7.966;2022-12-20T11:56:19;48.35;;;26.55;;
70132;SDS011;57495;49.922;7.966;2022-12-20T11:58:26;50.47;;;27.53;;
70132;SDS011;57495;49.922;7.966;2022-12-20T12:00:33;57.08;;;27.65;;
70132;SDS011;57495;49.922;7.966;2022-12-20T12:02:38;52.65;;;26.95;;
70132;SDS011;57495;49.922;7.966;2022-12-20T12:04:44;46.90;;;25.45;;
70132;SDS011;57495;49.922;7.966;2022-12-20T12:06:51;53.60;;;27.17;;
70132;SDS011;57495;49.922;7.966;2022-12-20T12:09:02;53.20;;;26.07;;